Time;durP1;ratioP1;P1;durP2;ratioP2;P2;SDS_P1;SDS_P2;PMS_P1;PMS_P2;Temp;Humidity;BMP_temperature;BMP_pressure;BME280_temperature;BME280_humidity;BME280_pressure;Samples;Min_cycle;Max_cycle;Signal;HPM_P1;HPM_P2
2021/06/30 00:02:09;;;;;;;10.15;2.00;;;;;;;;;;5070224;28;20102;-34
2021/06/30 00:04:36;;;;;;;12.73;1.80;;;;;;;;;;5073278;28;20469;-41
2021/06/30 00:07:05;;;;;;;11.50;1.77;;;;;;;;;;5070248;28;20101;-33
2021/06/30 00:09:32;;;;;;;10.32;2.05;;;;;;;;;;5073130;28;20075;-33
2021/06/30 00:11:59;;;;;;;14.90;2.10;;;;;;;;;;5061717;28;20025;-33
2021/06/30 00:14:27;;;;;;;12.20;2.33;;;;;;;;;;5071267;28;20496;-36
2021/06/30 00:16:55;;;;;;;14.80;1.90;;;;;;;;;;5072669;28;20384;-36
2021/06/30 00:19:22;;;;;;;12.60;1.88;;;;;;;;;;5072794;28;20479;-32
2021/06/30 00:21:49;;;;;;;10.10;1.75;;;;;;;;;;5072969;28;20064;-37
2021/06/30 00:24:17;;;;;;;8.38;1.80;;;;;;;;;;5073442;28;20013;-34
2021/06/30 00:26:46;;;;;;;9.55;1.67;;;;;;;;;;5070699;28;20016;-32
2021/06/30 00:29:15;;;;;;;6.75;1.38;;;;;;;;;;5073469;28;20021;-31
2021/06/30 00:31:42;;;;;;;5.40;1.27;;;;;;;;;;5063567;28;20562;-31
2021/06/30 00:34:09;;;;;;;5.65;1.85;;;;;;;;;;5072903;28;20013;-35
2021/06/30 00:36:43;;;;;;;4.78;1.50;;;;;;;;;;5073245;28;20062;-35
2021/06/30 00:39:10;;;;;;;7.60;1.65;;;;;;;;;;5065131;28;20043;-34
2021/06/30 00:41:37;;;;;;;7.63;1.60;;;;;;;;;;5073077;28;20032;-33
2021/06/30 00:44:04;;;;;;;6.97;1.50;;;;;;;;;;5070222;28;20392;-32
2021/06/30 00:46:35;;;;;;;8.40;1.50;;;;;;;;;;5065369;28;20017;-33
2021/06/30 00:49:03;;;;;;;8.38;1.50;;;;;;;;;;5053073;28;20025;-31
2021/06/30 00:51:30;;;;;;;3.60;1.48;;;;;;;;;;5053215;28;20031;-34
2021/06/30 00:53:57;;;;;;;12.10;1.70;;;;;;;;;;5052845;28;20017;-40
2021/06/30 00:56:26;;;;;;;12.93;2.00;;;;;;;;;;5053045;28;20064;-33
2021/06/30 00:58:55;;;;;;;16.98;1.85;;;;;;;;;;5053137;28;20439;-31
2021/06/30 01:01:23;;;;;;;7.03;1.48;;;;;;;;;;5052752;28;20041;-32
2021/06/30 01:03:50;;;;;;;9.07;1.77;;;;;;;;;;5053146;28;20387;-33
2021/06/30 01:06:18;;;;;;;11.55;2.03;;;;;;;;;;5052598;28;20029;-37
2021/06/30 01:08:45;;;;;;;10.65;1.58;;;;;;;;;;5052961;28;20052;-35
2021/06/30 01:11:13;;;;;;;12.40;2.20;;;;;;;;;;5052567;28;20013;-37
2021/06/30 01:13:40;;;;;;;13.43;2.55;;;;;;;;;;5052707;28;20017;-30
2021/06/30 01:16:08;;;;;;;20.33;1.98;;;;;;;;;;5039895;28;20052;-30
2021/06/30 01:18:35;;;;;;;13.45;2.40;;;;;;;;;;5060704;28;20037;-30
2021/06/30 01:21:05;;;;;;;11.70;2.50;;;;;;;;;;5052325;28;20035;-35
2021/06/30 01:23:32;;;;;;;12.63;2.53;;;;;;;;;;5052951;28;20017;-33
2021/06/30 01:25:59;;;;;;;9.00;2.75;;;;;;;;;;5052681;28;20473;-33
2021/06/30 01:28:26;;;;;;;7.35;2.00;;;;;;;;;;5053319;28;20067;-33
2021/06/30 01:30:53;;;;;;;8.13;2.15;;;;;;;;;;5052151;28;20037;-31
2021/06/30 01:33:21;;;;;;;11.60;2.30;;;;;;;;;;5052363;28;20025;-31
2021/06/30 01:35:48;;;;;;;7.47;2.17;;;;;;;;;;5058862;28;20024;-31
2021/06/30 01:38:15;;;;;;;9.73;1.88;;;;;;;;;;5072539;28;20024;-31
2021/06/30 01:40:42;;;;;;;14.75;1.83;;;;;;;;;;5071464;28;20037;-31
2021/06/30 01:43:09;;;;;;;13.48;2.08;;;;;;;;;;5071759;28;20040;-33
2021/06/30 01:45:36;;;;;;;17.67;2.58;;;;;;;;;;5057866;28;20060;-41
2021/06/30 01:48:04;;;;;;;11.20;2.10;;;;;;;;;;5051957;28;20025;-32
2021/06/30 01:50:31;;;;;;;13.68;2.50;;;;;;;;;;5052160;28;20028;-31
2021/06/30 01:52:58;;;;;;;13.73;2.35;;;;;;;;;;5052156;28;20079;-35
2021/06/30 01:55:25;;;;;;;10.65;1.85;;;;;;;;;;5057094;28;20031;-34
2021/06/30 01:57:53;;;;;;;11.80;2.00;;;;;;;;;;5054449;28;20032;-33
2021/06/30 02:00:20;;;;;;;19.20;2.40;;;;;;;;;;5045441;28;20519;-51
2021/06/30 02:02:48;;;;;;;18.63;2.55;;;;;;;;;;5068420;28;20031;-36
2021/06/30 02:05:17;;;;;;;7.50;1.80;;;;;;;;;;5070542;28;20047;-44
2021/06/30 02:07:45;;;;;;;9.23;1.77;;;;;;;;;;5042931;28;20691;-36
2021/06/30 02:10:13;;;;;;;7.47;1.83;;;;;;;;;;5068701;28;20025;-39
2021/06/30 02:12:40;;;;;;;21.33;2.08;;;;;;;;;;5067533;28;20017;-43
2021/06/30 02:15:12;;;;;;;9.07;1.80;;;;;;;;;;5059432;28;20399;-34
2021/06/30 02:17:39;;;;;;;4.30;1.67;;;;;;;;;;5070189;28;20024;-33
2021/06/30 02:20:07;;;;;;;9.85;1.92;;;;;;;;;;5051864;28;20024;-33
2021/06/30 02:22:38;;;;;;;17.02;1.75;;;;;;;;;;5067659;28;20028;-36
2021/06/30 02:25:06;;;;;;;9.02;1.95;;;;;;;;;;5057635;28;20067;-36
2021/06/30 02:27:33;;;;;;;10.93;1.70;;;;;;;;;;5058531;28;20029;-42
2021/06/30 02:30:00;;;;;;;5.85;1.73;;;;;;;;;;5050988;28;20151;-39
2021/06/30 02:32:27;;;;;;;10.40;1.67;;;;;;;;;;5050468;28;20527;-34
2021/06/30 02:34:56;;;;;;;17.50;2.00;;;;;;;;;;5056999;28;20074;-34
2021/06/30 02:37:23;;;;;;;6.28;1.40;;;;;;;;;;5070230;28;20043;-37
2021/06/30 02:39:50;;;;;;;8.50;2.10;;;;;;;;;;5071119;28;20036;-35
2021/06/30 02:42:17;;;;;;;7.20;1.65;;;;;;;;;;5062154;28;20036;-33
2021/06/30 02:44:44;;;;;;;12.25;1.65;;;;;;;;;;5065431;28;20024;-33
2021/06/30 02:47:11;;;;;;;9.27;1.40;;;;;;;;;;5068514;28;20527;-35
2021/06/30 02:49:38;;;;;;;12.27;1.60;;;;;;;;;;5069123;28;20025;-36
2021/06/30 02:52:05;;;;;;;9.65;1.33;;;;;;;;;;5052487;28;20025;-36
2021/06/30 02:54:33;;;;;;;6.65;1.38;;;;;;;;;;5051026;28;20021;-35
2021/06/30 02:57:00;;;;;;;7.60;1.48;;;;;;;;;;5050674;28;20017;-34
2021/06/30 02:59:27;;;;;;;6.22;1.52;;;;;;;;;;5058353;28;20024;-35
2021/06/30 03:01:54;;;;;;;12.20;1.50;;;;;;;;;;5061440;28;20041;-33
2021/06/30 03:04:21;;;;;;;7.38;1.98;;;;;;;;;;5060380;28;20094;-41
2021/06/30 03:06:48;;;;;;;9.85;1.55;;;;;;;;;;5060173;28;20031;-33
2021/06/30 03:09:15;;;;;;;8.55;1.38;;;;;;;;;;5062400;28;20016;-34
2021/06/30 03:11:42;;;;;;;7.55;1.50;;;;;;;;;;5062008;28;20060;-36
2021/06/30 03:14:09;;;;;;;3.50;1.15;;;;;;;;;;5070275;28;20031;-33
2021/06/30 03:16:36;;;;;;;5.65;1.48;;;;;;;;;;5053024;28;20029;-32
2021/06/30 03:19:03;;;;;;;4.05;1.20;;;;;;;;;;5065073;28;20024;-32
2021/06/30 03:21:30;;;;;;;8.45;1.40;;;;;;;;;;5070599;28;20033;-35
2021/06/30 03:23:57;;;;;;;4.80;1.30;;;;;;;;;;5062513;28;20009;-32
2021/06/30 03:26:24;;;;;;;7.82;1.20;;;;;;;;;;5060641;28;20547;-33
2021/06/30 03:28:51;;;;;;;3.92;1.13;;;;;;;;;;5065147;28;20031;-34
2021/06/30 03:31:18;;;;;;;7.53;1.23;;;;;;;;;;5063806;28;20492;-31
2021/06/30 03:33:45;;;;;;;5.10;1.20;;;;;;;;;;5070785;28;20024;-37
2021/06/30 03:36:12;;;;;;;4.30;1.70;;;;;;;;;;5072879;28;20452;-36
2021/06/30 03:38:39;;;;;;;5.45;1.20;;;;;;;;;;5075540;28;20029;-34
2021/06/30 03:41:06;;;;;;;2.47;1.10;;;;;;;;;;5075321;28;20041;-39
2021/06/30 03:43:33;;;;;;;2.38;0.90;;;;;;;;;;5071693;28;20044;-33
2021/06/30 03:46:00;;;;;;;4.25;0.85;;;;;;;;;;5075094;28;20361;-35
2021/06/30 03:48:27;;;;;;;4.80;1.00;;;;;;;;;;5074716;28;20028;-35
2021/06/30 03:50:54;;;;;;;2.75;1.02;;;;;;;;;;5075047;28;20021;-35
2021/06/30 03:53:21;;;;;;;5.10;1.30;;;;;;;;;;5074462;28;20020;-43
2021/06/30 03:55:48;;;;;;;4.32;1.20;;;;;;;;;;5074914;28;20060;-34
2021/06/30 03:58:15;;;;;;;6.25;1.00;;;;;;;;;;5074524;28;20036;-34
2021/06/30 04:00:42;;;;;;;2.38;1.00;;;;;;;;;;5074946;28;20029;-40
2021/06/30 04:03:09;;;;;;;3.60;0.90;;;;;;;;;;5074317;28;20089;-38
2021/06/30 04:05:37;;;;;;;4.80;1.30;;;;;;;;;;5074996;28;20410;-34
2021/06/30 04:08:09;;;;;;;5.70;1.45;;;;;;;;;;5074464;28;20506;-33
2021/06/30 04:10:36;;;;;;;2.03;0.80;;;;;;;;;;5074890;28;20563;-41
2021/06/30 04:13:04;;;;;;;2.33;0.98;;;;;;;;;;5073984;28;20033;-34
2021/06/30 04:15:31;;;;;;;2.95;1.00;;;;;;;;;;5074649;28;20107;-36
2021/06/30 04:18:00;;;;;;;6.05;0.90;;;;;;;;;;5074865;28;20013;-32
2021/06/30 04:20:27;;;;;;;6.80;0.90;;;;;;;;;;5074279;28;20070;-35
2021/06/30 04:22:54;;;;;;;5.40;1.10;;;;;;;;;;5074274;28;20048;-33
2021/06/30 04:25:21;;;;;;;4.00;0.90;;;;;;;;;;5074171;28;20025;-34
2021/06/30 04:27:48;;;;;;;4.43;0.85;;;;;;;;;;5074542;28;20021;-35
2021/06/30 04:30:15;;;;;;;3.20;1.00;;;;;;;;;;5073691;28;20020;-34
2021/06/30 04:32:42;;;;;;;2.25;0.90;;;;;;;;;;5074318;28;20024;-33
2021/06/30 04:35:09;;;;;;;6.10;1.05;;;;;;;;;;5074053;28;20017;-35
2021/06/30 04:37:37;;;;;;;3.75;0.80;;;;;;;;;;5074117;28;20027;-33
2021/06/30 04:40:05;;;;;;;2.78;0.80;;;;;;;;;;5073843;28;20028;-35
2021/06/30 04:42:32;;;;;;;2.35;1.00;;;;;;;;;;5073800;28;20177;-34
2021/06/30 04:44:59;;;;;;;3.00;0.93;;;;;;;;;;5073979;28;20468;-32
2021/06/30 04:47:26;;;;;;;7.32;0.95;;;;;;;;;;5073513;28;20134;-33
2021/06/30 04:49:53;;;;;;;2.80;0.95;;;;;;;;;;5074369;28;20016;-36
2021/06/30 04:52:20;;;;;;;3.50;0.85;;;;;;;;;;5073258;28;20028;-33
2021/06/30 04:54:47;;;;;;;1.35;0.80;;;;;;;;;;5074146;28;20016;-35
2021/06/30 04:57:14;;;;;;;2.58;1.05;;;;;;;;;;5073453;28;20012;-36
2021/06/30 04:59:41;;;;;;;1.65;0.88;;;;;;;;;;5073765;28;20059;-37
2021/06/30 05:02:09;;;;;;;1.23;0.50;;;;;;;;;;5073335;28;20143;-33
2021/06/30 05:04:36;;;;;;;2.40;1.00;;;;;;;;;;5073418;28;20020;-34
2021/06/30 05:07:03;;;;;;;1.80;0.80;;;;;;;;;;5073018;28;20032;-29
2021/06/30 05:09:30;;;;;;;1.27;0.60;;;;;;;;;;5073937;28;20066;-34
2021/06/30 05:11:57;;;;;;;3.22;0.88;;;;;;;;;;5073728;28;20055;-32
2021/06/30 05:14:24;;;;;;;1.63;0.73;;;;;;;;;;5073315;28;20381;-31
2021/06/30 05:16:51;;;;;;;1.92;0.63;;;;;;;;;;5073944;28;20032;-33
2021/06/30 05:19:18;;;;;;;3.35;0.85;;;;;;;;;;5073086;28;20027;-32
2021/06/30 05:21:45;;;;;;;2.58;0.98;;;;;;;;;;5073454;28;20033;-34
2021/06/30 05:24:12;;;;;;;3.28;1.02;;;;;;;;;;5073155;28;20059;-31
2021/06/30 05:26:39;;;;;;;2.10;0.80;;;;;;;;;;5073396;28;20029;-36
2021/06/30 05:29:06;;;;;;;1.83;0.60;;;;;;;;;;5072795;28;20021;-33
2021/06/30 05:31:33;;;;;;;2.25;0.80;;;;;;;;;;5073524;28;20056;-35
2021/06/30 05:34:00;;;;;;;1.80;0.80;;;;;;;;;;5072766;28;20028;-30
2021/06/30 05:36:27;;;;;;;2.67;0.80;;;;;;;;;;5073058;28;20024;-33
2021/06/30 05:38:54;;;;;;;1.60;0.70;;;;;;;;;;5072837;28;20050;-32
2021/06/30 05:41:21;;;;;;;2.85;0.90;;;;;;;;;;5073066;28;20036;-34
2021/06/30 05:43:48;;;;;;;1.63;0.70;;;;;;;;;;5072754;28;20434;-48
2021/06/30 05:46:18;;;;;;;2.30;0.98;;;;;;;;;;5072585;28;20094;-35
2021/06/30 05:48:45;;;;;;;1.98;0.85;;;;;;;;;;5073085;28;20009;-39
2021/06/30 05:51:13;;;;;;;1.52;0.88;;;;;;;;;;5072234;28;20383;-31
2021/06/30 05:53:40;;;;;;;2.15;0.55;;;;;;;;;;5072833;28;20016;-34
2021/06/30 05:56:08;;;;;;;1.63;0.70;;;;;;;;;;5072716;28;20024;-32
2021/06/30 05:58:35;;;;;;;0.88;0.50;;;;;;;;;;5072607;28;20005;-34
2021/06/30 06:01:02;;;;;;;1.65;0.73;;;;;;;;;;5071551;28;20072;-31
2021/06/30 06:03:29;;;;;;;1.40;0.45;;;;;;;;;;5072877;28;20027;-34
2021/06/30 06:05:56;;;;;;;1.42;0.63;;;;;;;;;;5071915;28;20494;-42
2021/06/30 06:08:23;;;;;;;1.55;0.50;;;;;;;;;;5072493;28;20036;-48
2021/06/30 06:10:50;;;;;;;1.80;0.77;;;;;;;;;;5071819;28;20365;-41
2021/06/30 06:13:17;;;;;;;1.42;0.65;;;;;;;;;;5072339;28;20430;-45
2021/06/30 06:15:44;;;;;;;1.58;0.80;;;;;;;;;;5071447;28;20066;-35
2021/06/30 06:18:11;;;;;;;1.08;0.60;;;;;;;;;;5072286;28;20028;-33
2021/06/30 06:20:38;;;;;;;2.13;0.80;;;;;;;;;;5071846;28;20480;-34
2021/06/30 06:23:05;;;;;;;3.30;0.80;;;;;;;;;;5071553;28;20058;-33
2021/06/30 06:25:32;;;;;;;1.05;0.60;;;;;;;;;;5071962;28;20024;-47
2021/06/30 06:28:00;;;;;;;0.70;0.50;;;;;;;;;;5071672;28;20345;-47
2021/06/30 06:30:29;;;;;;;2.22;0.60;;;;;;;;;;5072151;28;20025;-47
2021/06/30 06:32:56;;;;;;;1.17;0.60;;;;;;;;;;5071771;28;20059;-32
2021/06/30 06:35:24;;;;;;;2.50;0.88;;;;;;;;;;5071938;28;20033;-35
2021/06/30 06:37:51;;;;;;;1.15;0.60;;;;;;;;;;5071890;28;20020;-35
2021/06/30 06:40:18;;;;;;;1.15;0.50;;;;;;;;;;5072227;28;20036;-34
2021/06/30 06:42:45;;;;;;;1.25;0.63;;;;;;;;;;5071455;28;20056;-35
2021/06/30 06:45:12;;;;;;;2.78;0.70;;;;;;;;;;5071834;28;20545;-32
2021/06/30 06:47:39;;;;;;;1.35;0.60;;;;;;;;;;5072278;28;20384;-34
2021/06/30 06:50:06;;;;;;;4.50;0.75;;;;;;;;;;5071498;28;20024;-34
2021/06/30 06:52:33;;;;;;;1.40;0.50;;;;;;;;;;5071976;28;20025;-33
2021/06/30 06:55:01;;;;;;;2.47;0.80;;;;;;;;;;5071256;28;20078;-32
2021/06/30 06:57:28;;;;;;;3.15;0.68;;;;;;;;;;5072011;28;20074;-31
2021/06/30 06:59:55;;;;;;;1.55;0.70;;;;;;;;;;5071403;28;20017;-33
2021/06/30 07:02:25;;;;;;;0.75;0.47;;;;;;;;;;5071968;28;20031;-36
2021/06/30 07:04:52;;;;;;;1.40;0.60;;;;;;;;;;5071285;28;20028;-34
2021/06/30 07:07:19;;;;;;;2.35;0.60;;;;;;;;;;5071714;28;20067;-32
2021/06/30 07:09:46;;;;;;;1.67;0.50;;;;;;;;;;5071362;28;20025;-31
2021/06/30 07:12:13;;;;;;;1.40;0.47;;;;;;;;;;5071493;28;20021;-31
2021/06/30 07:14:40;;;;;;;0.80;0.50;;;;;;;;;;5071530;28;20024;-31
2021/06/30 07:17:07;;;;;;;1.38;0.60;;;;;;;;;;5071024;28;20089;-33
2021/06/30 07:19:34;;;;;;;0.93;0.35;;;;;;;;;;5071867;28;20106;-36
2021/06/30 07:22:01;;;;;;;1.33;0.40;;;;;;;;;;5071252;28;20116;-34
2021/06/30 07:24:28;;;;;;;1.25;0.47;;;;;;;;;;5071748;28;20028;-34
2021/06/30 07:26:56;;;;;;;1.10;0.63;;;;;;;;;;5071097;28;20170;-33
2021/06/30 07:29:23;;;;;;;2.10;0.52;;;;;;;;;;5071545;28;20487;-36
2021/06/30 07:31:50;;;;;;;0.90;0.50;;;;;;;;;;5071126;28;20024;-31
2021/06/30 07:34:17;;;;;;;1.75;0.50;;;;;;;;;;5071591;28;20021;-35
2021/06/30 07:36:44;;;;;;;1.02;0.55;;;;;;;;;;5070904;28;20035;-33
2021/06/30 07:39:11;;;;;;;1.65;0.50;;;;;;;;;;5071443;28;20024;-35
2021/06/30 07:41:38;;;;;;;1.00;0.52;;;;;;;;;;5070921;28;20555;-30
2021/06/30 07:44:05;;;;;;;1.23;0.60;;;;;;;;;;5065831;28;20444;-31
2021/06/30 07:46:32;;;;;;;0.55;0.50;;;;;;;;;;5050788;28;20087;-34
2021/06/30 07:48:59;;;;;;;1.13;0.50;;;;;;;;;;5050940;28;20071;-31
2021/06/30 07:51:27;;;;;;;0.65;0.40;;;;;;;;;;5033532;28;20025;-33
2021/06/30 07:53:54;;;;;;;2.30;0.60;;;;;;;;;;5050605;28;20060;-33
2021/06/30 07:56:33;;;;;;;0.77;0.40;;;;;;;;;;5051198;28;20508;-30
2021/06/30 07:59:10;;;;;;;1.45;0.70;;;;;;;;;;5050871;28;20017;-29
2021/06/30 08:01:38;;;;;;;2.00;0.40;;;;;;;;;;5051206;28;20037;-32
2021/06/30 08:04:06;;;;;;;1.15;0.47;;;;;;;;;;5050738;28;20476;-33
2021/06/30 08:06:33;;;;;;;1.05;0.40;;;;;;;;;;5033189;28;20384;-32
2021/06/30 08:09:01;;;;;;;3.13;0.50;;;;;;;;;;5050685;28;20095;-32
2021/06/30 08:11:28;;;;;;;1.65;0.40;;;;;;;;;;5051049;28;20504;-32
2021/06/30 08:13:55;;;;;;;1.75;0.43;;;;;;;;;;5050446;28;20021;-30
2021/06/30 08:16:22;;;;;;;1.80;0.60;;;;;;;;;;5051126;28;20021;-30
2021/06/30 08:18:49;;;;;;;1.23;0.50;;;;;;;;;;5051238;28;20029;-34
2021/06/30 08:21:17;;;;;;;2.15;0.30;;;;;;;;;;5050519;28;20404;-32
2021/06/30 08:23:45;;;;;;;1.83;0.65;;;;;;;;;;5053879;28;20415;-34
2021/06/30 08:26:12;;;;;;;2.75;0.50;;;;;;;;;;5053741;28;20029;-32
2021/06/30 08:28:40;;;;;;;1.33;0.50;;;;;;;;;;5054406;28;20154;-33
2021/06/30 08:31:07;;;;;;;2.05;0.50;;;;;;;;;;5053875;28;20025;-31
2021/06/30 08:33:34;;;;;;;0.75;0.30;;;;;;;;;;5054565;28;20060;-33
2021/06/30 08:36:01;;;;;;;1.10;0.40;;;;;;;;;;5053770;28;20174;-33
2021/06/30 08:38:28;;;;;;;0.95;0.40;;;;;;;;;;5054527;28;20052;-32
2021/06/30 08:40:56;;;;;;;0.95;0.50;;;;;;;;;;5053702;28;20032;-39
2021/06/30 08:43:24;;;;;;;1.75;0.40;;;;;;;;;;5054077;28;20049;-36
2021/06/30 08:45:51;;;;;;;1.90;0.47;;;;;;;;;;5053965;28;20017;-31
2021/06/30 08:48:18;;;;;;;1.05;0.50;;;;;;;;;;5054033;28;20024;-35
2021/06/30 08:50:45;;;;;;;1.63;0.50;;;;;;;;;;5053987;28;20017;-33
2021/06/30 08:53:13;;;;;;;0.68;0.50;;;;;;;;;;5053672;28;20021;-29
2021/06/30 08:55:44;;;;;;;0.57;0.40;;;;;;;;;;5054479;28;20408;-33
2021/06/30 08:58:13;;;;;;;2.67;0.50;;;;;;;;;;5053209;28;20028;-34
2021/06/30 09:00:44;;;;;;;0.80;0.43;;;;;;;;;;5054024;28;20431;-32
2021/06/30 09:03:19;;;;;;;2.78;0.52;;;;;;;;;;5053606;28;20025;-29
2021/06/30 09:08:23;;;;;;;0.80;0.40;;;;;;;;;;5053051;28;20035;-32
2021/06/30 09:10:50;;;;;;;3.97;0.50;;;;;;;;;;5053218;28;20650;-30
2021/06/30 09:13:26;;;;;;;0.57;0.40;;;;;;;;;;5053001;28;20100;-35
2021/06/30 09:16:03;;;;;;;1.33;0.50;;;;;;;;;;5053658;28;20622;-39
2021/06/30 09:18:33;;;;;;;0.60;0.30;;;;;;;;;;5053038;28;20102;-33
2021/06/30 09:21:16;;;;;;;1.00;0.28;;;;;;;;;;5053326;28;20029;-33
2021/06/30 09:23:59;;;;;;;1.50;0.50;;;;;;;;;;5052900;28;20035;-30
2021/06/30 09:26:26;;;;;;;1.23;0.60;;;;;;;;;;5053509;28;20021;-32
2021/06/30 09:29:12;;;;;;;1.05;0.40;;;;;;;;;;5052906;28;20152;-35
2021/06/30 09:31:44;;;;;;;1.55;0.30;;;;;;;;;;5053415;28;20021;-32
2021/06/30 09:34:11;;;;;;;0.98;0.38;;;;;;;;;;5052692;28;20476;-36
2021/06/30 09:36:54;;;;;;;0.80;0.40;;;;;;;;;;5053455;28;20040;-37
2021/06/30 09:39:22;;;;;;;3.90;0.50;;;;;;;;;;5052925;28;20060;-33
2021/06/30 09:41:49;;;;;;;1.58;0.55;;;;;;;;;;5053034;28;20512;-34
2021/06/30 09:44:19;;;;;;;1.15;0.40;;;;;;;;;;5052577;28;20358;-30
2021/06/30 09:46:47;;;;;;;0.93;0.38;;;;;;;;;;5052886;28;20469;-35
2021/06/30 09:49:18;;;;;;;1.48;0.40;;;;;;;;;;5053106;28;20017;-34
2021/06/30 09:51:47;;;;;;;1.75;0.60;;;;;;;;;;5052882;28;20104;-32
2021/06/30 09:54:15;;;;;;;1.80;0.47;;;;;;;;;;5052812;28;20074;-35
2021/06/30 09:56:58;;;;;;;0.68;0.40;;;;;;;;;;5051956;28;20025;-32
2021/06/30 09:59:26;;;;;;;0.85;0.50;;;;;;;;;;5052453;28;20025;-34
2021/06/30 10:01:53;;;;;;;1.98;0.85;;;;;;;;;;5052078;28;20040;-35
2021/06/30 10:04:31;;;;;;;2.25;0.60;;;;;;;;;;5051966;28;20032;-34
2021/06/30 10:07:00;;;;;;;5.03;0.43;;;;;;;;;;5051646;28;20021;-35
2021/06/30 10:09:27;;;;;;;22.42;3.53;;;;;;;;;;5052539;28;20690;-34
2021/06/30 10:12:01;;;;;;;18.80;3.03;;;;;;;;;;5059540;28;20021;-32
2021/06/30 10:14:28;;;;;;;16.17;2.75;;;;;;;;;;5070225;28;20033;-36
2021/06/30 10:16:55;;;;;;;10.50;2.10;;;;;;;;;;5071871;28;20021;-31
2021/06/30 10:19:22;;;;;;;11.95;2.28;;;;;;;;;;5072477;28;20021;-38
2021/06/30 10:21:50;;;;;;;7.18;1.85;;;;;;;;;;5071632;28;20040;-37
2021/06/30 10:24:18;;;;;;;9.25;1.70;;;;;;;;;;5071538;28;20023;-35
2021/06/30 10:26:45;;;;;;;9.27;1.58;;;;;;;;;;5071562;28;20025;-33
2021/06/30 10:29:12;;;;;;;7.05;1.70;;;;;;;;;;5051638;28;20024;-37
2021/06/30 10:31:41;;;;;;;10.70;1.60;;;;;;;;;;5066996;28;20031;-34
2021/06/30 10:34:14;;;;;;;8.50;1.33;;;;;;;;;;5068017;28;20138;-32
2021/06/30 10:36:49;;;;;;;6.78;1.02;;;;;;;;;;5069552;28;20020;-32
2021/06/30 10:39:19;;;;;;;4.78;0.98;;;;;;;;;;5070403;28;20078;-37
2021/06/30 10:41:51;;;;;;;8.25;1.33;;;;;;;;;;5069975;28;20502;-42
2021/06/30 10:44:27;;;;;;;10.77;1.83;;;;;;;;;;5070407;28;20076;-57
2021/06/30 10:46:55;;;;;;;6.18;1.13;;;;;;;;;;5077392;28;20031;-34
2021/06/30 10:49:24;;;;;;;4.65;1.00;;;;;;;;;;5090369;28;20008;-49
2021/06/30 10:52:01;;;;;;;4.55;1.08;;;;;;;;;;5091286;28;20479;-34
2021/06/30 10:54:42;;;;;;;6.18;0.80;;;;;;;;;;5090911;28;20043;-32
2021/06/30 10:57:26;;;;;;;2.78;0.82;;;;;;;;;;5091719;28;20471;-32
2021/06/30 11:00:05;;;;;;;3.42;0.70;;;;;;;;;;5088398;28;20095;-42
2021/06/30 11:02:33;;;;;;;8.00;0.88;;;;;;;;;;5091271;28;20394;-33
2021/06/30 11:05:16;;;;;;;4.43;1.15;;;;;;;;;;5090557;28;20028;-31
2021/06/30 11:07:43;;;;;;;6.57;0.90;;;;;;;;;;5090676;28;20107;-32
2021/06/30 11:10:20;;;;;;;4.43;1.00;;;;;;;;;;5089150;28;20498;-40
2021/06/30 11:12:54;;;;;;;2.65;0.60;;;;;;;;;;5089548;28;20028;-35
2021/06/30 11:15:36;;;;;;;2.38;0.82;;;;;;;;;;5079871;28;20018;-37
2021/06/30 11:18:03;;;;;;;;;;;;;;;;;;5076755;28;20031;-37
2021/06/30 11:20:46;;;;;;;4.97;0.73;;;;;;;;;;5069903;28;19957;-45
2021/06/30 11:23:20;;;;;;;2.05;0.80;;;;;;;;;;5068529;28;20024;-36
2021/06/30 11:25:49;;;;;;;3.22;0.70;;;;;;;;;;5070608;28;20029;-42
2021/06/30 11:28:31;;;;;;;4.43;0.90;;;;;;;;;;5071269;28;20421;-36
2021/06/30 11:30:59;;;;;;;3.90;0.73;;;;;;;;;;5072045;28;20051;-42
2021/06/30 11:33:26;;;;;;;3.88;0.95;;;;;;;;;;5084953;28;20020;-40
2021/06/30 11:36:02;;;;;;;5.63;0.70;;;;;;;;;;5080572;28;20028;-54
2021/06/30 11:38:32;;;;;;;4.65;0.60;;;;;;;;;;5078453;28;20024;-39
2021/06/30 11:41:12;;;;;;;2.67;0.60;;;;;;;;;;5085627;28;20547;-44
2021/06/30 11:43:42;;;;;;;5.80;0.95;;;;;;;;;;5067981;28;20181;-59
2021/06/30 11:46:11;;;;;;;3.05;0.80;;;;;;;;;;5059210;28;20107;-39
2021/06/30 11:48:40;;;;;;;3.45;0.70;;;;;;;;;;5053086;28;20049;-47
2021/06/30 11:51:11;;;;;;;3.97;0.75;;;;;;;;;;5061639;28;20039;-37
2021/06/30 11:53:44;;;;;;;1.65;0.80;;;;;;;;;;5069220;28;20064;-41
2021/06/30 11:56:13;;;;;;;2.42;0.70;;;;;;;;;;5069946;28;20032;-51
2021/06/30 11:58:42;;;;;;;2.83;0.60;;;;;;;;;;5070873;28;20090;-37
2021/06/30 12:01:18;;;;;;;2.20;0.70;;;;;;;;;;5072117;28;20037;-36
2021/06/30 12:03:45;;;;;;;3.10;0.68;;;;;;;;;;5066337;28;20035;-41
2021/06/30 12:06:25;;;;;;;7.43;0.80;;;;;;;;;;5073032;28;20525;-54
2021/06/30 12:09:05;;;;;;;1.45;0.65;;;;;;;;;;5073531;28;20029;-54
2021/06/30 12:11:33;;;;;;;2.75;0.75;;;;;;;;;;5069259;28;20040;-56
2021/06/30 12:14:06;;;;;;;2.03;0.63;;;;;;;;;;5073154;28;20499;-59
2021/06/30 12:16:44;;;;;;;5.80;0.90;;;;;;;;;;5074148;28;20510;-52
2021/06/30 12:19:17;;;;;;;1.35;0.75;;;;;;;;;;5074164;28;20020;-51
2021/06/30 12:21:50;;;;;;;3.35;1.00;;;;;;;;;;5072506;28;20036;-57
2021/06/30 12:24:21;;;;;;;7.22;1.13;;;;;;;;;;5072136;28;20020;-46
2021/06/30 12:26:57;;;;;;;3.20;0.73;;;;;;;;;;5074200;28;20475;-50
2021/06/30 12:29:24;;;;;;;5.50;0.77;;;;;;;;;;5073619;28;20039;-48
2021/06/30 12:31:54;;;;;;;2.33;0.80;;;;;;;;;;5074074;28;20017;-49
2021/06/30 12:34:21;;;;;;;1.67;0.80;;;;;;;;;;5072007;28;20025;-51
2021/06/30 12:36:48;;;;;;;4.38;0.90;;;;;;;;;;5072224;28;20480;-60
2021/06/30 12:39:27;;;;;;;1.75;0.65;;;;;;;;;;5073512;28;20028;-59
2021/06/30 12:42:05;;;;;;;3.10;0.90;;;;;;;;;;5074681;28;20479;-46
2021/06/30 12:44:50;;;;;;;1.65;0.60;;;;;;;;;;5093163;28;20036;-47
2021/06/30 12:47:17;;;;;;;1.80;0.75;;;;;;;;;;5091623;28;20105;-57
2021/06/30 12:49:56;;;;;;;4.20;0.80;;;;;;;;;;5093480;28;20028;-58
2021/06/30 12:52:26;;;;;;;2.70;0.60;;;;;;;;;;5092525;28;20019;-53
2021/06/30 12:55:07;;;;;;;2.83;0.80;;;;;;;;;;5092897;28;20024;-58
2021/06/30 12:57:54;;;;;;;5.65;0.82;;;;;;;;;;5086374;28;20044;-56
2021/06/30 13:00:23;;;;;;;2.42;0.75;;;;;;;;;;5081471;28;20384;-57
2021/06/30 13:03:10;;;;;;;10.52;1.20;;;;;;;;;;5085015;28;20166;-58
2021/06/30 13:05:37;;;;;;;4.93;0.82;;;;;;;;;;5093232;28;20027;-47
2021/06/30 13:08:04;;;;;;;2.60;0.70;;;;;;;;;;5092158;28;20020;-48
2021/06/30 13:10:31;;;;;;;6.10;0.88;;;;;;;;;;5081312;28;20098;-47
2021/06/30 13:13:08;;;;;;;4.15;0.93;;;;;;;;;;5078162;28;20032;-48
2021/06/30 13:15:36;;;;;;;9.68;0.88;;;;;;;;;;5088259;28;20479;-52
2021/06/30 13:18:16;;;;;;;5.45;0.70;;;;;;;;;;5093657;28;20020;-53
2021/06/30 13:20:47;;;;;;;4.40;0.90;;;;;;;;;;5082664;28;20028;-58
2021/06/30 13:23:14;;;;;;;4.80;0.82;;;;;;;;;;5079043;28;20035;-42
2021/06/30 13:25:51;;;;;;;5.65;1.10;;;;;;;;;;5085568;28;20024;-35
2021/06/30 13:29:18;;;;;;;5.93;0.90;;;;;;;;;;5086645;28;20110;-37
2021/06/30 13:34:24;;;;;;;11.75;0.90;;;;;;;;;;5071652;28;20097;-49
2021/06/30 13:36:58;;;;;;;9.05;1.02;;;;;;;;;;5068947;28;20452;-33
2021/06/30 13:39:27;;;;;;;6.90;1.00;;;;;;;;;;5090879;28;20490;-33
2021/06/30 13:41:55;;;;;;;7.50;1.33;;;;;;;;;;5070126;28;20037;-34
2021/06/30 13:44:26;;;;;;;5.93;0.80;;;;;;;;;;5053249;28;20055;-38
2021/06/30 13:46:53;;;;;;;5.15;0.75;;;;;;;;;;5052991;28;20056;-40
2021/06/30 13:49:24;;;;;;;4.50;0.77;;;;;;;;;;5053069;28;20500;-33
2021/06/30 13:51:51;;;;;;;2.08;0.88;;;;;;;;;;5052537;28;20511;-35
2021/06/30 13:54:21;;;;;;;6.15;1.05;;;;;;;;;;5057417;28;20483;-32
2021/06/30 13:56:48;;;;;;;5.95;1.00;;;;;;;;;;5070695;28;20147;-33
2021/06/30 13:59:15;;;;;;;4.55;1.20;;;;;;;;;;5069323;28;20036;-52
2021/06/30 14:01:42;;;;;;;6.13;1.10;;;;;;;;;;5060380;28;20072;-34
2021/06/30 14:04:09;;;;;;;4.15;0.80;;;;;;;;;;5062013;28;20044;-49
2021/06/30 14:06:37;;;;;;;2.75;1.13;;;;;;;;;;5069679;28;20024;-32
2021/06/30 14:09:05;;;;;;;6.25;1.05;;;;;;;;;;5072096;28;20029;-34
2021/06/30 14:11:33;;;;;;;2.75;1.05;;;;;;;;;;5072420;28;20502;-32
2021/06/30 14:14:02;;;;;;;3.35;1.00;;;;;;;;;;5069266;28;20024;-31
2021/06/30 14:16:30;;;;;;;2.83;0.88;;;;;;;;;;5069850;28;20410;-32
2021/06/30 14:18:57;;;;;;;6.47;0.90;;;;;;;;;;5071727;28;20048;-30
2021/06/30 14:21:24;;;;;;;8.60;1.00;;;;;;;;;;5071215;28;20033;-35
2021/06/30 14:23:51;;;;;;;5.18;1.10;;;;;;;;;;5069753;28;20033;-31
2021/06/30 14:26:19;;;;;;;7.30;1.17;;;;;;;;;;5058207;28;20066;-29
2021/06/30 14:28:46;;;;;;;3.92;1.23;;;;;;;;;;5072267;28;20029;-29
2021/06/30 14:31:13;;;;;;;7.00;0.95;;;;;;;;;;5065821;28;20027;-34
2021/06/30 14:33:41;;;;;;;5.88;1.10;;;;;;;;;;5070809;28;20480;-32
2021/06/30 14:36:08;;;;;;;5.20;0.90;;;;;;;;;;5071846;28;20036;-33
2021/06/30 14:38:35;;;;;;;7.22;1.30;;;;;;;;;;5072305;28;20019;-32
2021/06/30 14:41:02;;;;;;;9.70;1.42;;;;;;;;;;5071052;28;20043;-33
2021/06/30 14:43:29;;;;;;;6.65;1.05;;;;;;;;;;5063626;28;20037;-35
2021/06/30 14:46:00;;;;;;;3.95;0.90;;;;;;;;;;5044027;28;20429;-33
2021/06/30 14:48:29;;;;;;;7.05;1.10;;;;;;;;;;5062485;28;20008;-39
2021/06/30 14:50:57;;;;;;;13.90;1.55;;;;;;;;;;5050560;28;20021;-34
2021/06/30 14:53:25;;;;;;;10.05;1.33;;;;;;;;;;5061962;28;20024;-37
2021/06/30 14:55:52;;;;;;;8.98;1.40;;;;;;;;;;5062164;28;20029;-39
2021/06/30 14:58:21;;;;;;;13.07;1.90;;;;;;;;;;5059751;28;20480;-34